sensor_id;sensor_type;location;lat;lon;timestamp;P1;durP1;ratioP1;P2;durP2;ratioP2
60653;SDS011;46476;53.614;10.048;2022-09-27T00:01:27;2.33;;;1.17;;
60653;SDS011;46476;53.614;10.048;2022-09-27T00:03:53;1.50;;;1.10;;
60653;SDS011;46476;53.614;10.048;2022-09-27T00:06:27;1.50;;;1.08;;
60653;SDS011;46476;53.614;10.048;2022-09-27T00:08:54;1.30;;;1.00;;
60653;SDS011;46476;53.614;10.048;2022-09-27T00:13:54;1.23;;;0.95;;
60653;SDS011;46476;53.614;10.048;2022-09-27T00:16:21;1.25;;;0.95;;
60653;SDS011;46476;53.614;10.048;2022-09-27T00:18:47;1.35;;;1.00;;
60653;SDS011;46476;53.614;10.048;2022-09-27T00:21:13;1.13;;;0.98;;
60653;SDS011;46476;53.614;10.048;2022-09-27T00:23:38;1.95;;;0.90;;
60653;SDS011;46476;53.614;10.048;2022-09-27T00:26:04;1.15;;;0.90;;
60653;SDS011;46476;53.614;10.048;2022-09-27T00:28:31;2.85;;;1.20;;
60653;SDS011;46476;53.614;10.048;2022-09-27T00:30:58;5.93;;;1.00;;
60653;SDS011;46476;53.614;10.048;2022-09-27T00:33:24;1.85;;;1.00;;
60653;SDS011;46476;53.614;10.048;2022-09-27T00:35:50;1.60;;;1.10;;
60653;SDS011;46476;53.614;10.048;2022-09-27T00:38:15;2.13;;;0.90;;
60653;SDS011;46476;53.614;10.048;2022-09-27T00:40:41;1.20;;;0.82;;
60653;SDS011;46476;53.614;10.048;2022-09-27T00:43:17;1.30;;;1.00;;
60653;SDS011;46476;53.614;10.048;2022-09-27T00:45:51;3.20;;;1.10;;
60653;SDS011;46476;53.614;10.048;2022-09-27T00:48:21;1.42;;;0.80;;
60653;SDS011;46476;53.614;10.048;2022-09-27T00:50:49;0.88;;;0.82;;
60653;SDS011;46476;53.614;10.048;2022-09-27T00:53:38;1.83;;;1.08;;
60653;SDS011;46476;53.614;10.048;2022-09-27T00:56:17;1.75;;;0.95;;
60653;SDS011;46476;53.614;10.048;2022-09-27T00:58:46;1.00;;;0.90;;
60653;SDS011;46476;53.614;10.048;2022-09-27T01:01:16;3.60;;;1.03;;
60653;SDS011;46476;53.614;10.048;2022-09-27T01:06:20;1.40;;;1.05;;
60653;SDS011;46476;53.614;10.048;2022-09-27T01:08:46;1.05;;;0.90;;
60653;SDS011;46476;53.614;10.048;2022-09-27T01:11:20;1.63;;;0.88;;
60653;SDS011;46476;53.614;10.048;2022-09-27T01:28:30;1.70;;;1.15;;
60653;SDS011;46476;53.614;10.048;2022-09-27T01:31:19;0.90;;;0.80;;
60653;SDS011;46476;53.614;10.048;2022-09-27T01:33:48;0.80;;;0.73;;
60653;SDS011;46476;53.614;10.048;2022-09-27T01:39:03;1.95;;;0.90;;
60653;SDS011;46476;53.614;10.048;2022-09-27T01:44:33;1.00;;;0.90;;
60653;SDS011;46476;53.614;10.048;2022-09-27T01:48:01;1.20;;;0.63;;
60653;SDS011;46476;53.614;10.048;2022-09-27T01:50:10;1.67;;;0.90;;
60653;SDS011;46476;53.614;10.048;2022-09-27T01:52:42;1.30;;;0.90;;
60653;SDS011;46476;53.614;10.048;2022-09-27T01:55:14;1.10;;;0.90;;
60653;SDS011;46476;53.614;10.048;2022-09-27T01:57:43;0.80;;;0.80;;
60653;SDS011;46476;53.614;10.048;2022-09-27T02:00:14;0.65;;;0.65;;
60653;SDS011;46476;53.614;10.048;2022-09-27T02:02:42;1.15;;;0.77;;
60653;SDS011;46476;53.614;10.048;2022-09-27T02:05:12;0.73;;;0.70;;
60653;SDS011;46476;53.614;10.048;2022-09-27T02:08:04;1.25;;;0.85;;
60653;SDS011;46476;53.614;10.048;2022-09-27T02:10:36;0.80;;;0.80;;
60653;SDS011;46476;53.614;10.048;2022-09-27T02:18:15;1.00;;;0.90;;
60653;SDS011;46476;53.614;10.048;2022-09-27T02:20:48;1.15;;;0.82;;
60653;SDS011;46476;53.614;10.048;2022-09-27T02:28:39;1.15;;;0.90;;
60653;SDS011;46476;53.614;10.048;2022-09-27T02:31:09;1.13;;;1.00;;
60653;SDS011;46476;53.614;10.048;2022-09-27T02:33:36;1.17;;;0.90;;
60653;SDS011;46476;53.614;10.048;2022-09-27T02:36:05;2.15;;;1.05;;
60653;SDS011;46476;53.614;10.048;2022-09-27T02:38:31;3.50;;;0.90;;
60653;SDS011;46476;53.614;10.048;2022-09-27T02:40:57;1.83;;;1.00;;
60653;SDS011;46476;53.614;10.048;2022-09-27T02:43:23;1.42;;;1.00;;
60653;SDS011;46476;53.614;10.048;2022-09-27T02:48:53;1.52;;;1.00;;
60653;SDS011;46476;53.614;10.048;2022-09-27T02:59:24;1.25;;;0.90;;
60653;SDS011;46476;53.614;10.048;2022-09-27T03:04:56;2.17;;;1.17;;
60653;SDS011;46476;53.614;10.048;2022-09-27T03:07:26;1.35;;;1.25;;
60653;SDS011;46476;53.614;10.048;2022-09-27T03:09:53;3.05;;;1.35;;
60653;SDS011;46476;53.614;10.048;2022-09-27T03:12:19;1.95;;;1.17;;
60653;SDS011;46476;53.614;10.048;2022-09-27T03:14:50;2.17;;;1.20;;
60653;SDS011;46476;53.614;10.048;2022-09-27T03:17:22;1.83;;;1.20;;
60653;SDS011;46476;53.614;10.048;2022-09-27T03:19:48;2.08;;;1.33;;
60653;SDS011;46476;53.614;10.048;2022-09-27T03:22:13;1.80;;;1.40;;
60653;SDS011;46476;53.614;10.048;2022-09-27T03:24:39;3.13;;;1.50;;
60653;SDS011;46476;53.614;10.048;2022-09-27T03:27:05;3.53;;;1.50;;
60653;SDS011;46476;53.614;10.048;2022-09-27T03:29:30;2.08;;;1.40;;
60653;SDS011;46476;53.614;10.048;2022-09-27T03:31:56;1.58;;;1.40;;
60653;SDS011;46476;53.614;10.048;2022-09-27T03:34:22;2.17;;;1.50;;
60653;SDS011;46476;53.614;10.048;2022-09-27T03:36:47;1.42;;;1.27;;
60653;SDS011;46476;53.614;10.048;2022-09-27T03:39:12;2.53;;;1.42;;
60653;SDS011;46476;53.614;10.048;2022-09-27T03:41:38;1.92;;;1.35;;
60653;SDS011;46476;53.614;10.048;2022-09-27T03:44:03;1.80;;;1.45;;
60653;SDS011;46476;53.614;10.048;2022-09-27T03:46:28;2.08;;;1.60;;
60653;SDS011;46476;53.614;10.048;2022-09-27T03:48:54;1.77;;;1.48;;
60653;SDS011;46476;53.614;10.048;2022-09-27T03:51:19;1.75;;;1.50;;
60653;SDS011;46476;53.614;10.048;2022-09-27T03:53:44;1.48;;;1.38;;
60653;SDS011;46476;53.614;10.048;2022-09-27T03:56:10;3.67;;;1.60;;
60653;SDS011;46476;53.614;10.048;2022-09-27T03:58:36;1.55;;;1.30;;
60653;SDS011;46476;53.614;10.048;2022-09-27T04:01:01;2.97;;;1.70;;
60653;SDS011;46476;53.614;10.048;2022-09-27T04:03:27;2.15;;;1.60;;
60653;SDS011;46476;53.614;10.048;2022-09-27T04:05:52;2.90;;;1.55;;
60653;SDS011;46476;53.614;10.048;2022-09-27T04:08:18;2.60;;;1.70;;
60653;SDS011;46476;53.614;10.048;2022-09-27T04:10:45;1.50;;;1.40;;
60653;SDS011;46476;53.614;10.048;2022-09-27T04:13:10;1.80;;;1.48;;
60653;SDS011;46476;53.614;10.048;2022-09-27T04:15:35;3.10;;;1.55;;
60653;SDS011;46476;53.614;10.048;2022-09-27T04:18:03;2.60;;;1.98;;
60653;SDS011;46476;53.614;10.048;2022-09-27T04:20:29;3.13;;;2.17;;
60653;SDS011;46476;53.614;10.048;2022-09-27T04:22:54;3.17;;;1.70;;
60653;SDS011;46476;53.614;10.048;2022-09-27T04:25:19;2.38;;;1.40;;
60653;SDS011;46476;53.614;10.048;2022-09-27T04:27:45;2.30;;;1.30;;
60653;SDS011;46476;53.614;10.048;2022-09-27T04:30:11;1.88;;;1.42;;
60653;SDS011;46476;53.614;10.048;2022-09-27T04:32:43;1.70;;;1.35;;
60653;SDS011;46476;53.614;10.048;2022-09-27T04:37:53;2.10;;;1.63;;
60653;SDS011;46476;53.614;10.048;2022-09-27T04:40:18;2.03;;;1.42;;
60653;SDS011;46476;53.614;10.048;2022-09-27T04:42:46;2.35;;;1.85;;
60653;SDS011;46476;53.614;10.048;2022-09-27T04:45:11;1.50;;;1.40;;
60653;SDS011;46476;53.614;10.048;2022-09-27T04:47:41;2.17;;;1.67;;
60653;SDS011;46476;53.614;10.048;2022-09-27T04:50:10;1.88;;;1.50;;
60653;SDS011;46476;53.614;10.048;2022-09-27T04:52:36;5.25;;;1.90;;
60653;SDS011;46476;53.614;10.048;2022-09-27T04:55:01;3.22;;;1.50;;
60653;SDS011;46476;53.614;10.048;2022-09-27T04:57:27;2.83;;;1.55;;
60653;SDS011;46476;53.614;10.048;2022-09-27T04:59:52;2.13;;;1.50;;
60653;SDS011;46476;53.614;10.048;2022-09-27T05:02:17;2.72;;;1.60;;
60653;SDS011;46476;53.614;10.048;2022-09-27T05:04:43;2.00;;;1.63;;
60653;SDS011;46476;53.614;10.048;2022-09-27T05:07:08;1.77;;;1.50;;
60653;SDS011;46476;53.614;10.048;2022-09-27T05:09:34;2.20;;;1.45;;
60653;SDS011;46476;53.614;10.048;2022-09-27T05:12:01;4.15;;;1.90;;
60653;SDS011;46476;53.614;10.048;2022-09-27T05:14:26;2.30;;;1.75;;
60653;SDS011;46476;53.614;10.048;2022-09-27T05:16:52;2.83;;;1.88;;
60653;SDS011;46476;53.614;10.048;2022-09-27T05:19:19;3.80;;;1.95;;
60653;SDS011;46476;53.614;10.048;2022-09-27T05:21:44;3.75;;;1.90;;
60653;SDS011;46476;53.614;10.048;2022-09-27T05:24:10;2.95;;;1.90;;
60653;SDS011;46476;53.614;10.048;2022-09-27T05:26:35;4.45;;;1.88;;
60653;SDS011;46476;53.614;10.048;2022-09-27T05:29:01;4.25;;;1.67;;
60653;SDS011;46476;53.614;10.048;2022-09-27T05:31:27;2.10;;;1.67;;
60653;SDS011;46476;53.614;10.048;2022-09-27T05:33:53;2.67;;;2.00;;
60653;SDS011;46476;53.614;10.048;2022-09-27T05:36:19;3.15;;;2.15;;
60653;SDS011;46476;53.614;10.048;2022-09-27T05:38:45;3.80;;;2.22;;
60653;SDS011;46476;53.614;10.048;2022-09-27T05:41:10;2.63;;;1.92;;
60653;SDS011;46476;53.614;10.048;2022-09-27T05:43:36;2.40;;;2.08;;
60653;SDS011;46476;53.614;10.048;2022-09-27T05:46:01;2.40;;;1.70;;
60653;SDS011;46476;53.614;10.048;2022-09-27T05:48:29;3.40;;;2.13;;
60653;SDS011;46476;53.614;10.048;2022-09-27T05:50:55;3.95;;;2.17;;
60653;SDS011;46476;53.614;10.048;2022-09-27T05:53:21;2.70;;;2.28;;
60653;SDS011;46476;53.614;10.048;2022-09-27T05:55:46;4.35;;;3.38;;
60653;SDS011;46476;53.614;10.048;2022-09-27T05:58:13;3.47;;;3.13;;
60653;SDS011;46476;53.614;10.048;2022-09-27T06:00:40;3.75;;;2.75;;
60653;SDS011;46476;53.614;10.048;2022-09-27T06:03:07;3.00;;;2.63;;
60653;SDS011;46476;53.614;10.048;2022-09-27T06:05:35;3.13;;;2.45;;
60653;SDS011;46476;53.614;10.048;2022-09-27T06:08:03;3.17;;;2.42;;
60653;SDS011;46476;53.614;10.048;2022-09-27T06:10:31;4.60;;;2.70;;
60653;SDS011;46476;53.614;10.048;2022-09-27T06:12:57;3.50;;;3.20;;
60653;SDS011;46476;53.614;10.048;2022-09-27T06:15:30;4.05;;;3.30;;
60653;SDS011;46476;53.614;10.048;2022-09-27T06:18:05;3.47;;;3.05;;
60653;SDS011;46476;53.614;10.048;2022-09-27T06:20:33;3.28;;;2.95;;
60653;SDS011;46476;53.614;10.048;2022-09-27T06:23:03;4.40;;;3.53;;
60653;SDS011;46476;53.614;10.048;2022-09-27T06:25:36;3.63;;;3.20;;
60653;SDS011;46476;53.614;10.048;2022-09-27T06:28:02;3.72;;;3.30;;
60653;SDS011;46476;53.614;10.048;2022-09-27T06:30:28;3.78;;;3.38;;
60653;SDS011;46476;53.614;10.048;2022-09-27T06:32:58;4.10;;;3.28;;
60653;SDS011;46476;53.614;10.048;2022-09-27T06:35:24;5.68;;;3.67;;
60653;SDS011;46476;53.614;10.048;2022-09-27T06:37:50;5.63;;;3.90;;
60653;SDS011;46476;53.614;10.048;2022-09-27T06:40:16;5.93;;;3.63;;
60653;SDS011;46476;53.614;10.048;2022-09-27T06:42:42;4.47;;;3.80;;
60653;SDS011;46476;53.614;10.048;2022-09-27T06:45:08;4.65;;;3.80;;
60653;SDS011;46476;53.614;10.048;2022-09-27T06:47:34;5.80;;;3.78;;
60653;SDS011;46476;53.614;10.048;2022-09-27T06:50:00;5.90;;;3.25;;
60653;SDS011;46476;53.614;10.048;2022-09-27T06:52:29;5.18;;;3.40;;
60653;SDS011;46476;53.614;10.048;2022-09-27T06:54:54;3.70;;;3.22;;
60653;SDS011;46476;53.614;10.048;2022-09-27T06:57:20;4.68;;;3.05;;
60653;SDS011;46476;53.614;10.048;2022-09-27T07:00:05;4.00;;;2.83;;
60653;SDS011;46476;53.614;10.048;2022-09-27T07:02:51;3.50;;;2.90;;
60653;SDS011;46476;53.614;10.048;2022-09-27T07:05:17;4.22;;;2.67;;
60653;SDS011;46476;53.614;10.048;2022-09-27T07:07:44;4.03;;;2.92;;
60653;SDS011;46476;53.614;10.048;2022-09-27T07:10:11;3.97;;;2.60;;
60653;SDS011;46476;53.614;10.048;2022-09-27T07:12:36;1.98;;;1.75;;
60653;SDS011;46476;53.614;10.048;2022-09-27T07:15:02;1.73;;;1.63;;
60653;SDS011;46476;53.614;10.048;2022-09-27T07:17:29;2.22;;;1.10;;
60653;SDS011;46476;53.614;10.048;2022-09-27T07:19:54;1.50;;;1.23;;
60653;SDS011;46476;53.614;10.048;2022-09-27T07:22:20;1.20;;;1.00;;
60653;SDS011;46476;53.614;10.048;2022-09-27T07:24:46;1.95;;;1.00;;
60653;SDS011;46476;53.614;10.048;2022-09-27T07:27:11;1.00;;;0.70;;
60653;SDS011;46476;53.614;10.048;2022-09-27T07:29:36;1.45;;;0.70;;
60653;SDS011;46476;53.614;10.048;2022-09-27T07:32:02;1.50;;;0.80;;
60653;SDS011;46476;53.614;10.048;2022-09-27T07:34:28;1.02;;;0.80;;
60653;SDS011;46476;53.614;10.048;2022-09-27T07:36:57;1.83;;;0.70;;
60653;SDS011;46476;53.614;10.048;2022-09-27T07:39:27;2.92;;;1.10;;
60653;SDS011;46476;53.614;10.048;2022-09-27T07:41:52;2.80;;;0.77;;
60653;SDS011;46476;53.614;10.048;2022-09-27T07:44:18;1.42;;;0.70;;
60653;SDS011;46476;53.614;10.048;2022-09-27T07:46:43;1.48;;;0.80;;
60653;SDS011;46476;53.614;10.048;2022-09-27T07:49:08;1.13;;;0.52;;
60653;SDS011;46476;53.614;10.048;2022-09-27T07:51:34;1.40;;;0.47;;
60653;SDS011;46476;53.614;10.048;2022-09-27T07:53:59;0.85;;;0.50;;
60653;SDS011;46476;53.614;10.048;2022-09-27T07:56:28;1.00;;;0.40;;
60653;SDS011;46476;53.614;10.048;2022-09-27T07:58:53;1.52;;;0.60;;
60653;SDS011;46476;53.614;10.048;2022-09-27T08:01:19;0.85;;;0.32;;
60653;SDS011;46476;53.614;10.048;2022-09-27T08:03:45;0.85;;;0.30;;
60653;SDS011;46476;53.614;10.048;2022-09-27T08:06:10;1.40;;;0.63;;
60653;SDS011;46476;53.614;10.048;2022-09-27T08:08:36;1.45;;;0.40;;
60653;SDS011;46476;53.614;10.048;2022-09-27T08:11:11;1.90;;;0.63;;
60653;SDS011;46476;53.614;10.048;2022-09-27T08:13:39;3.00;;;1.17;;
60653;SDS011;46476;53.614;10.048;2022-09-27T08:16:08;2.28;;;0.80;;
60653;SDS011;46476;53.614;10.048;2022-09-27T08:18:35;1.05;;;0.60;;
60653;SDS011;46476;53.614;10.048;2022-09-27T08:21:00;1.08;;;0.50;;
60653;SDS011;46476;53.614;10.048;2022-09-27T08:23:26;0.98;;;0.40;;
60653;SDS011;46476;53.614;10.048;2022-09-27T08:25:51;1.13;;;0.55;;
60653;SDS011;46476;53.614;10.048;2022-09-27T08:28:17;2.38;;;0.55;;
60653;SDS011;46476;53.614;10.048;2022-09-27T08:30:43;2.13;;;0.57;;
60653;SDS011;46476;53.614;10.048;2022-09-27T08:33:09;1.63;;;0.30;;
60653;SDS011;46476;53.614;10.048;2022-09-27T08:35:34;1.17;;;0.50;;
60653;SDS011;46476;53.614;10.048;2022-09-27T08:38:00;0.73;;;0.40;;
60653;SDS011;46476;53.614;10.048;2022-09-27T08:40:41;0.60;;;0.35;;
60653;SDS011;46476;53.614;10.048;2022-09-27T08:46:14;1.13;;;0.40;;
60653;SDS011;46476;53.614;10.048;2022-09-27T08:49:17;2.30;;;0.75;;
60653;SDS011;46476;53.614;10.048;2022-09-27T08:51:46;1.92;;;0.70;;
60653;SDS011;46476;53.614;10.048;2022-09-27T08:54:15;1.30;;;0.52;;
60653;SDS011;46476;53.614;10.048;2022-09-27T08:56:45;1.15;;;0.22;;
60653;SDS011;46476;53.614;10.048;2022-09-27T08:59:16;1.05;;;0.30;;
60653;SDS011;46476;53.614;10.048;2022-09-27T09:01:49;0.88;;;0.43;;
60653;SDS011;46476;53.614;10.048;2022-09-27T09:04:37;1.67;;;0.30;;
60653;SDS011;46476;53.614;10.048;2022-09-27T09:20:54;0.43;;;0.20;;
60653;SDS011;46476;53.614;10.048;2022-09-27T09:23:33;0.30;;;0.20;;
60653;SDS011;46476;53.614;10.048;2022-09-27T09:26:24;1.15;;;0.40;;
60653;SDS011;46476;53.614;10.048;2022-09-27T09:29:06;0.60;;;0.30;;
60653;SDS011;46476;53.614;10.048;2022-09-27T09:31:41;0.70;;;0.40;;
60653;SDS011;46476;53.614;10.048;2022-09-27T09:36:57;2.22;;;0.30;;
60653;SDS011;46476;53.614;10.048;2022-09-27T09:39:36;1.73;;;0.60;;
60653;SDS011;46476;53.614;10.048;2022-09-27T09:44:40;1.40;;;0.60;;
60653;SDS011;46476;53.614;10.048;2022-09-27T09:47:14;1.83;;;0.60;;
60653;SDS011;46476;53.614;10.048;2022-09-27T09:49:49;2.00;;;0.80;;
60653;SDS011;46476;53.614;10.048;2022-09-27T09:52:19;1.13;;;0.43;;
60653;SDS011;46476;53.614;10.048;2022-09-27T09:54:50;0.82;;;0.50;;
60653;SDS011;46476;53.614;10.048;2022-09-27T10:00:53;0.70;;;0.40;;
60653;SDS011;46476;53.614;10.048;2022-09-27T10:03:24;0.55;;;0.52;;
60653;SDS011;46476;53.614;10.048;2022-09-27T10:05:50;3.55;;;0.85;;
60653;SDS011;46476;53.614;10.048;2022-09-27T10:08:20;0.50;;;0.40;;
60653;SDS011;46476;53.614;10.048;2022-09-27T10:10:47;1.33;;;0.50;;
60653;SDS011;46476;53.614;10.048;2022-09-27T10:13:17;1.65;;;0.20;;
60653;SDS011;46476;53.614;10.048;2022-09-27T10:16:01;1.40;;;0.40;;
60653;SDS011;46476;53.614;10.048;2022-09-27T10:18:31;1.85;;;0.45;;
60653;SDS011;46476;53.614;10.048;2022-09-27T10:21:00;0.90;;;0.40;;
60653;SDS011;46476;53.614;10.048;2022-09-27T10:23:28;1.10;;;0.40;;
60653;SDS011;46476;53.614;10.048;2022-09-27T10:31:11;0.88;;;0.35;;
60653;SDS011;46476;53.614;10.048;2022-09-27T10:33:39;0.35;;;0.35;;
60653;SDS011;46476;53.614;10.048;2022-09-27T10:36:27;0.47;;;0.30;;
60653;SDS011;46476;53.614;10.048;2022-09-27T10:38:55;0.50;;;0.45;;
60653;SDS011;46476;53.614;10.048;2022-09-27T10:41:38;2.08;;;1.00;;
60653;SDS011;46476;53.614;10.048;2022-09-27T10:46:39;1.60;;;0.60;;
60653;SDS011;46476;53.614;10.048;2022-09-27T10:49:09;1.00;;;0.40;;
60653;SDS011;46476;53.614;10.048;2022-09-27T10:51:42;0.40;;;0.40;;
60653;SDS011;46476;53.614;10.048;2022-09-27T10:54:19;0.35;;;0.30;;
60653;SDS011;46476;53.614;10.048;2022-09-27T10:57:15;0.40;;;0.30;;
60653;SDS011;46476;53.614;10.048;2022-09-27T10:59:50;0.60;;;0.28;;
60653;SDS011;46476;53.614;10.048;2022-09-27T11:02:29;0.80;;;0.40;;
60653;SDS011;46476;53.614;10.048;2022-09-27T11:05:14;0.52;;;0.30;;
60653;SDS011;46476;53.614;10.048;2022-09-27T11:07:56;1.75;;;0.20;;
60653;SDS011;46476;53.614;10.048;2022-09-27T11:10:24;0.50;;;0.20;;
60653;SDS011;46476;53.614;10.048;2022-09-27T11:13:10;0.38;;;0.28;;
60653;SDS011;46476;53.614;10.048;2022-09-27T11:16:03;0.60;;;0.30;;
60653;SDS011;46476;53.614;10.048;2022-09-27T11:18:29;0.63;;;0.40;;
60653;SDS011;46476;53.614;10.048;2022-09-27T11:24:52;1.20;;;0.30;;
60653;SDS011;46476;53.614;10.048;2022-09-27T11:32:29;0.30;;;0.30;;
60653;SDS011;46476;53.614;10.048;2022-09-27T11:35:11;0.65;;;0.25;;
60653;SDS011;46476;53.614;10.048;2022-09-27T11:38:09;1.05;;;0.30;;
60653;SDS011;46476;53.614;10.048;2022-09-27T11:46:22;1.30;;;0.30;;
60653;SDS011;46476;53.614;10.048;2022-09-27T11:55:18;0.60;;;0.45;;
60653;SDS011;46476;53.614;10.048;2022-09-27T12:06:20;0.73;;;0.40;;
60653;SDS011;46476;53.614;10.048;2022-09-27T12:09:11;1.05;;;0.30;;
60653;SDS011;46476;53.614;10.048;2022-09-27T12:14:19;0.32;;;0.20;;
60653;SDS011;46476;53.614;10.048;2022-09-27T12:16:54;2.45;;;0.40;;
60653;SDS011;46476;53.614;10.048;2022-09-27T12:19:31;0.30;;;0.20;;
60653;SDS011;46476;53.614;10.048;2022-09-27T12:22:09;1.48;;;0.50;;
60653;SDS011;46476;53.614;10.048;2022-09-27T12:24:38;1.10;;;0.47;;
60653;SDS011;46476;53.614;10.048;2022-09-27T12:27:22;0.60;;;0.40;;
60653;SDS011;46476;53.614;10.048;2022-09-27T12:29:54;0.40;;;0.40;;
60653;SDS011;46476;53.614;10.048;2022-09-27T12:32:30;0.82;;;0.40;;
60653;SDS011;46476;53.614;10.048;2022-09-27T12:37:42;1.67;;;0.40;;
60653;SDS011;46476;53.614;10.048;2022-09-27T12:40:20;0.30;;;0.30;;
60653;SDS011;46476;53.614;10.048;2022-09-27T12:43:07;1.27;;;0.50;;
60653;SDS011;46476;53.614;10.048;2022-09-27T12:45:52;1.05;;;0.40;;
60653;SDS011;46476;53.614;10.048;2022-09-27T12:51:31;0.88;;;0.40;;
60653;SDS011;46476;53.614;10.048;2022-09-27T12:56:50;0.88;;;0.30;;
60653;SDS011;46476;53.614;10.048;2022-09-27T13:10:53;2.05;;;0.50;;
60653;SDS011;46476;53.614;10.048;2022-09-27T13:13:20;1.55;;;0.38;;
60653;SDS011;46476;53.614;10.048;2022-09-27T13:15:50;0.45;;;0.30;;
60653;SDS011;46476;53.614;10.048;2022-09-27T13:21:01;1.05;;;0.30;;
60653;SDS011;46476;53.614;10.048;2022-09-27T13:38:40;0.90;;;0.30;;
60653;SDS011;46476;53.614;10.048;2022-09-27T13:41:16;0.32;;;0.20;;
60653;SDS011;46476;53.614;10.048;2022-09-27T13:43:48;0.38;;;0.30;;
60653;SDS011;46476;53.614;10.048;2022-09-27T13:46:29;1.60;;;0.40;;
60653;SDS011;46476;53.614;10.048;2022-09-27T13:51:45;0.95;;;0.30;;
60653;SDS011;46476;53.614;10.048;2022-09-27T14:00:15;0.75;;;0.30;;
60653;SDS011;46476;53.614;10.048;2022-09-27T14:02:50;1.02;;;0.30;;
60653;SDS011;46476;53.614;10.048;2022-09-27T14:05:23;0.20;;;0.20;;
60653;SDS011;46476;53.614;10.048;2022-09-27T14:10:20;1.38;;;0.50;;
60653;SDS011;46476;53.614;10.048;2022-09-27T14:12:47;1.08;;;0.30;;
60653;SDS011;46476;53.614;10.048;2022-09-27T14:15:19;0.65;;;0.30;;
60653;SDS011;46476;53.614;10.048;2022-09-27T14:17:48;0.47;;;0.22;;
60653;SDS011;46476;53.614;10.048;2022-09-27T14:23:05;0.55;;;0.40;;
60653;SDS011;46476;53.614;10.048;2022-09-27T14:25:43;1.23;;;0.28;;
60653;SDS011;46476;53.614;10.048;2022-09-27T14:28:21;2.53;;;0.47;;
60653;SDS011;46476;53.614;10.048;2022-09-27T14:30:46;0.68;;;0.40;;
60653;SDS011;46476;53.614;10.048;2022-09-27T14:33:28;1.08;;;0.30;;
60653;SDS011;46476;53.614;10.048;2022-09-27T14:35:55;0.50;;;0.30;;
60653;SDS011;46476;53.614;10.048;2022-09-27T14:38:39;0.68;;;0.30;;
60653;SDS011;46476;53.614;10.048;2022-09-27T14:41:06;0.40;;;0.35;;
60653;SDS011;46476;53.614;10.048;2022-09-27T14:43:32;2.33;;;0.60;;
60653;SDS011;46476;53.614;10.048;2022-09-27T14:46:04;0.50;;;0.40;;
60653;SDS011;46476;53.614;10.048;2022-09-27T14:48:37;1.10;;;0.47;;
60653;SDS011;46476;53.614;10.048;2022-09-27T14:53:36;0.35;;;0.30;;
60653;SDS011;46476;53.614;10.048;2022-09-27T14:56:08;0.53;;;0.30;;
60653;SDS011;46476;53.614;10.048;2022-09-27T14:58:41;1.25;;;0.30;;
60653;SDS011;46476;53.614;10.048;2022-09-27T15:01:11;0.63;;;0.22;;
60653;SDS011;46476;53.614;10.048;2022-09-27T15:03:40;0.47;;;0.30;;
60653;SDS011;46476;53.614;10.048;2022-09-27T15:06:06;0.63;;;0.40;;
60653;SDS011;46476;53.614;10.048;2022-09-27T15:08:32;3.20;;;0.40;;
60653;SDS011;46476;53.614;10.048;2022-09-27T15:10:58;0.70;;;0.35;;
60653;SDS011;46476;53.614;10.048;2022-09-27T15:13:25;0.40;;;0.30;;
60653;SDS011;46476;53.614;10.048;2022-09-27T15:15:52;1.67;;;0.47;;
60653;SDS011;46476;53.614;10.048;2022-09-27T15:20:56;0.95;;;0.40;;
60653;SDS011;46476;53.614;10.048;2022-09-27T15:23:26;0.80;;;0.43;;
60653;SDS011;46476;53.614;10.048;2022-09-27T15:26:02;0.55;;;0.32;;
60653;SDS011;46476;53.614;10.048;2022-09-27T15:28:45;0.55;;;0.30;;
60653;SDS011;46476;53.614;10.048;2022-09-27T15:31:13;1.05;;;0.30;;
60653;SDS011;46476;53.614;10.048;2022-09-27T15:33:39;1.90;;;0.40;;
60653;SDS011;46476;53.614;10.048;2022-09-27T15:36:07;0.40;;;0.20;;
60653;SDS011;46476;53.614;10.048;2022-09-27T15:41:05;0.73;;;0.30;;
60653;SDS011;46476;53.614;10.048;2022-09-27T15:45:57;0.75;;;0.38;;
60653;SDS011;46476;53.614;10.048;2022-09-27T15:48:26;2.33;;;0.30;;
60653;SDS011;46476;53.614;10.048;2022-09-27T15:50:51;0.70;;;0.50;;
60653;SDS011;46476;53.614;10.048;2022-09-27T15:56:12;3.47;;;0.95;;
60653;SDS011;46476;53.614;10.048;2022-09-27T15:58:39;1.60;;;0.50;;
60653;SDS011;46476;53.614;10.048;2022-09-27T16:01:05;0.70;;;0.50;;
60653;SDS011;46476;53.614;10.048;2022-09-27T16:03:30;0.90;;;0.60;;
60653;SDS011;46476;53.614;10.048;2022-09-27T16:05:57;1.25;;;0.60;;
60653;SDS011;46476;53.614;10.048;2022-09-27T16:08:25;1.58;;;0.52;;
60653;SDS011;46476;53.614;10.048;2022-09-27T16:13:22;1.27;;;0.43;;
60653;SDS011;46476;53.614;10.048;2022-09-27T16:15:51;4.22;;;0.80;;
60653;SDS011;46476;53.614;10.048;2022-09-27T16:18:17;3.72;;;1.75;;
60653;SDS011;46476;53.614;10.048;2022-09-27T16:20:43;4.28;;;1.48;;
60653;SDS011;46476;53.614;10.048;2022-09-27T16:23:08;1.67;;;0.60;;
60653;SDS011;46476;53.614;10.048;2022-09-27T16:25:34;1.33;;;0.50;;
60653;SDS011;46476;53.614;10.048;2022-09-27T16:28:00;1.67;;;1.00;;
60653;SDS011;46476;53.614;10.048;2022-09-27T16:30:26;4.47;;;1.13;;
60653;SDS011;46476;53.614;10.048;2022-09-27T16:32:52;2.85;;;0.63;;
60653;SDS011;46476;53.614;10.048;2022-09-27T16:35:19;2.25;;;0.60;;
60653;SDS011;46476;53.614;10.048;2022-09-27T16:37:45;2.03;;;0.52;;
60653;SDS011;46476;53.614;10.048;2022-09-27T16:40:11;1.00;;;0.30;;
60653;SDS011;46476;53.614;10.048;2022-09-27T16:42:38;1.70;;;0.40;;
60653;SDS011;46476;53.614;10.048;2022-09-27T16:45:04;1.23;;;0.50;;
60653;SDS011;46476;53.614;10.048;2022-09-27T16:47:31;1.40;;;0.60;;
60653;SDS011;46476;53.614;10.048;2022-09-27T16:49:56;1.27;;;0.60;;
60653;SDS011;46476;53.614;10.048;2022-09-27T16:52:40;1.15;;;0.50;;
60653;SDS011;46476;53.614;10.048;2022-09-27T16:55:07;1.58;;;0.60;;
60653;SDS011;46476;53.614;10.048;2022-09-27T16:57:33;2.90;;;1.20;;
60653;SDS011;46476;53.614;10.048;2022-09-27T17:00:00;2.15;;;0.90;;
60653;SDS011;46476;53.614;10.048;2022-09-27T17:02:25;1.63;;;0.82;;
60653;SDS011;46476;53.614;10.048;2022-09-27T17:04:51;1.25;;;0.50;;
60653;SDS011;46476;53.614;10.048;2022-09-27T17:07:17;2.40;;;0.80;;
60653;SDS011;46476;53.614;10.048;2022-09-27T17:09:46;2.95;;;1.48;;
60653;SDS011;46476;53.614;10.048;2022-09-27T17:12:12;3.38;;;0.90;;
60653;SDS011;46476;53.614;10.048;2022-09-27T17:14:38;2.03;;;0.90;;
60653;SDS011;46476;53.614;10.048;2022-09-27T17:17:04;1.10;;;0.70;;
60653;SDS011;46476;53.614;10.048;2022-09-27T17:19:33;1.50;;;0.70;;
60653;SDS011;46476;53.614;10.048;2022-09-27T17:21:58;1.92;;;0.77;;
60653;SDS011;46476;53.614;10.048;2022-09-27T17:24:24;1.77;;;0.80;;
60653;SDS011;46476;53.614;10.048;2022-09-27T17:26:50;1.63;;;0.40;;
60653;SDS011;46476;53.614;10.048;2022-09-27T17:29:16;2.42;;;0.80;;
60653;SDS011;46476;53.614;10.048;2022-09-27T17:31:41;1.23;;;0.50;;
60653;SDS011;46476;53.614;10.048;2022-09-27T17:34:08;1.35;;;0.52;;
60653;SDS011;46476;53.614;10.048;2022-09-27T17:36:36;1.33;;;0.60;;
60653;SDS011;46476;53.614;10.048;2022-09-27T17:39:06;1.02;;;0.70;;
60653;SDS011;46476;53.614;10.048;2022-09-27T17:41:31;2.97;;;0.90;;
60653;SDS011;46476;53.614;10.048;2022-09-27T17:43:59;1.73;;;0.80;;
60653;SDS011;46476;53.614;10.048;2022-09-27T17:46:26;1.38;;;0.63;;
60653;SDS011;46476;53.614;10.048;2022-09-27T17:48:54;1.67;;;0.75;;
60653;SDS011;46476;53.614;10.048;2022-09-27T17:51:39;1.42;;;0.50;;
60653;SDS011;46476;53.614;10.048;2022-09-27T17:54:06;0.95;;;0.70;;